Time;durP1;ratioP1;P1;durP2;ratioP2;P2;SDS_P1;SDS_P2;PMS_P1;PMS_P2;Temp;Humidity;BMP_temperature;BMP_pressure;BME280_temperature;BME280_humidity;BME280_pressure;Samples;Min_cycle;Max_cycle;Signal;HPM_P1;HPM_P2
2022/10/03 00:02:06;;;;;;;6.32;3.45;;;;;;;;;;5048289;28;20522;-67
2022/10/03 00:05:02;;;;;;;5.63;3.80;;;;;;;;;;5030253;28;20033;-67
2022/10/03 00:07:57;;;;;;;16.77;4.18;;;;;;;;;;5036503;28;20046;-67
2022/10/03 00:10:35;;;;;;;12.88;4.10;;;;;;;;;;5041566;28;20109;-67
2022/10/03 00:13:30;;;;;;;10.02;3.83;;;;;;;;;;5067454;28;20047;-66
2022/10/03 00:16:16;;;;;;;7.13;3.95;;;;;;;;;;5016003;28;20820;-66
2022/10/03 00:19:02;;;;;;;21.15;4.55;;;;;;;;;;5067482;28;20033;-67
2022/10/03 00:22:01;;;;;;;11.82;3.92;;;;;;;;;;5049309;28;20056;-67
2022/10/03 00:24:33;;;;;;;41.33;4.65;;;;;;;;;;5048837;28;20029;-67
2022/10/03 00:27:11;;;;;;;25.38;4.10;;;;;;;;;;5049329;28;20067;-67
2022/10/03 00:30:10;;;;;;;17.63;3.78;;;;;;;;;;5067145;28;20040;-67
2022/10/03 00:32:40;;;;;;;14.60;4.07;;;;;;;;;;5048099;28;20045;-66
2022/10/03 00:35:30;;;;;;;7.35;4.15;;;;;;;;;;5029708;28;20025;-66
2022/10/03 00:38:23;;;;;;;11.18;4.20;;;;;;;;;;5029514;28;20025;-66
2022/10/03 00:41:13;;;;;;;10.88;3.53;;;;;;;;;;5046989;28;20044;-66
2022/10/03 00:44:00;;;;;;;8.60;4.15;;;;;;;;;;5067921;28;20817;-66
2022/10/03 00:46:52;;;;;;;6.47;3.80;;;;;;;;;;5067157;28;20056;-67
2022/10/03 00:49:45;;;;;;;5.55;3.35;;;;;;;;;;5039762;28;20037;-66
2022/10/03 00:52:35;;;;;;;9.48;3.65;;;;;;;;;;5046015;28;20067;-66
2022/10/03 00:55:34;;;;;;;7.18;2.80;;;;;;;;;;5045984;28;20043;-67
2022/10/03 00:58:22;;;;;;;4.68;2.88;;;;;;;;;;5023209;28;20048;-66
2022/10/03 01:00:50;;;;;;;5.25;3.28;;;;;;;;;;5027183;28;20496;-67
2022/10/03 01:03:36;;;;;;;5.57;2.40;;;;;;;;;;5025600;28;20034;-66
2022/10/03 01:06:07;;;;;;;4.03;3.03;;;;;;;;;;5025931;28;20048;-67
2022/10/03 01:08:33;;;;;;;6.55;3.05;;;;;;;;;;5026830;28;20450;-67
2022/10/03 01:11:26;;;;;;;5.78;3.05;;;;;;;;;;5050819;28;20477;-67
2022/10/03 01:14:24;;;;;;;4.30;2.80;;;;;;;;;;5048566;28;20056;-66
2022/10/03 01:17:01;;;;;;;6.03;3.08;;;;;;;;;;5066519;28;20048;-67
2022/10/03 01:19:46;;;;;;;42.10;4.30;;;;;;;;;;5066682;28;20037;-66
2022/10/03 01:22:21;;;;;;;7.13;3.38;;;;;;;;;;5065959;28;20394;-66
2022/10/03 01:24:53;;;;;;;6.85;3.05;;;;;;;;;;5066511;28;20044;-67
2022/10/03 01:27:24;;;;;;;7.13;3.78;;;;;;;;;;5066283;28;20032;-67
2022/10/03 01:32:49;;;;;;;6.47;3.30;;;;;;;;;;5066069;28;20078;-67
2022/10/03 01:35:28;;;;;;;6.47;3.33;;;;;;;;;;5066757;28;20025;-66
2022/10/03 01:38:08;;;;;;;5.22;3.08;;;;;;;;;;5043344;28;20016;-67
2022/10/03 01:40:36;;;;;;;4.50;2.92;;;;;;;;;;5048426;28;20056;-67
2022/10/03 01:43:13;;;;;;;6.15;3.10;;;;;;;;;;5044662;28;20052;-66
2022/10/03 01:46:09;;;;;;;6.57;3.72;;;;;;;;;;5036258;28;20048;-67
2022/10/03 01:48:54;;;;;;;4.47;2.95;;;;;;;;;;5024908;28;20526;-67
2022/10/03 01:51:32;;;;;;;5.88;3.15;;;;;;;;;;5026392;28;20037;-66
2022/10/03 01:54:28;;;;;;;7.28;3.22;;;;;;;;;;5026001;28;20029;-66
2022/10/03 01:57:34;;;;;;;4.90;2.90;;;;;;;;;;5029138;28;20087;-67
2022/10/03 02:00:16;;;;;;;5.72;3.40;;;;;;;;;;5030305;28;20034;-66
2022/10/03 02:03:00;;;;;;;8.20;3.15;;;;;;;;;;5012110;28;20414;-66
2022/10/03 02:05:38;;;;;;;7.40;3.22;;;;;;;;;;5030719;28;20052;-66
2022/10/03 02:08:29;;;;;;;6.22;3.28;;;;;;;;;;5060860;28;20025;-66
2022/10/03 02:11:06;;;;;;;15.65;3.30;;;;;;;;;;5070826;28;20025;-67
2022/10/03 02:13:53;;;;;;;21.17;3.45;;;;;;;;;;5063888;28;20100;-67
2022/10/03 02:16:43;;;;;;;18.75;3.08;;;;;;;;;;5060833;28;20128;-66
2022/10/03 02:19:23;;;;;;;17.67;2.78;;;;;;;;;;5052171;28;20752;-66
2022/10/03 02:21:54;;;;;;;6.80;3.13;;;;;;;;;;5070050;28;20048;-67
2022/10/03 02:24:38;;;;;;;4.82;2.60;;;;;;;;;;5069368;28;20044;-66
2022/10/03 02:27:52;;;;;;;6.82;2.83;;;;;;;;;;5069946;28;20532;-67
2022/10/03 02:30:23;;;;;;;3.92;2.70;;;;;;;;;;4997140;28;20045;-66
2022/10/03 02:33:06;;;;;;;3.60;2.33;;;;;;;;;;5069104;28;20131;-66
2022/10/03 02:36:05;;;;;;;5.47;3.15;;;;;;;;;;5069693;28;20078;-66
2022/10/03 02:38:34;;;;;;;5.85;3.17;;;;;;;;;;5068933;28;20037;-66
2022/10/03 02:41:31;;;;;;;17.30;3.67;;;;;;;;;;5050196;28;20029;-66
2022/10/03 02:44:30;;;;;;;10.38;3.03;;;;;;;;;;5049872;28;20458;-67
2022/10/03 02:47:01;;;;;;;12.95;2.88;;;;;;;;;;5049341;28;20067;-67
2022/10/03 02:49:58;;;;;;;40.53;3.88;;;;;;;;;;5049298;28;20033;-66
2022/10/03 02:52:54;;;;;;;14.23;3.10;;;;;;;;;;5048602;28;20098;-67
2022/10/03 02:55:43;;;;;;;18.48;3.38;;;;;;;;;;5031439;28;20628;-66
2022/10/03 02:58:27;;;;;;;38.85;3.05;;;;;;;;;;5049954;28;20096;-67
2022/10/03 03:01:14;;;;;;;44.55;3.85;;;;;;;;;;5051039;28;20041;-66
2022/10/03 03:04:03;;;;;;;54.97;3.65;;;;;;;;;;5069127;28;20159;-66
2022/10/03 03:06:55;;;;;;;46.83;3.85;;;;;;;;;;5068845;28;20044;-67
2022/10/03 03:09:58;;;;;;;42.88;3.97;;;;;;;;;;5068539;28;20564;-67
2022/10/03 03:12:51;;;;;;;30.42;3.50;;;;;;;;;;5066721;28;20037;-66
2022/10/03 03:15:36;;;;;;;63.63;3.70;;;;;;;;;;5051482;28;20036;-67
2022/10/03 03:18:01;;;;;;;33.88;3.65;;;;;;;;;;5069305;28;20102;-67
2022/10/03 03:20:50;;;;;;;24.30;3.42;;;;;;;;;;5068945;28;20783;-67
2022/10/03 03:23:35;;;;;;;24.80;3.08;;;;;;;;;;5068735;28;20754;-67
2022/10/03 03:26:21;;;;;;;18.00;3.15;;;;;;;;;;5069465;28;20613;-67
2022/10/03 03:29:09;;;;;;;25.17;3.25;;;;;;;;;;5068993;28;20043;-67
2022/10/03 03:31:59;;;;;;;24.05;3.17;;;;;;;;;;5069205;28;20059;-66
2022/10/03 03:34:41;;;;;;;14.98;3.22;;;;;;;;;;5068326;28;20414;-67
2022/10/03 03:37:24;;;;;;;44.45;3.67;;;;;;;;;;5068565;28;20039;-67
2022/10/03 03:40:02;;;;;;;46.70;3.38;;;;;;;;;;5057013;28;20040;-66
2022/10/03 03:42:33;;;;;;;21.90;3.55;;;;;;;;;;5048212;28;20418;-67
2022/10/03 03:45:20;;;;;;;47.60;4.22;;;;;;;;;;5030449;28;20091;-66
2022/10/03 03:47:56;;;;;;;23.92;3.55;;;;;;;;;;5030409;28;20486;-66
2022/10/03 03:50:47;;;;;;;25.65;4.13;;;;;;;;;;5048059;28;20063;-67
2022/10/03 03:53:44;;;;;;;28.92;3.60;;;;;;;;;;5047805;28;20025;-66
2022/10/03 03:56:41;;;;;;;27.05;3.90;;;;;;;;;;5050035;28;20040;-66
2022/10/03 03:59:22;;;;;;;18.23;4.13;;;;;;;;;;5037395;28;20091;-66
2022/10/03 04:02:05;;;;;;;27.38;3.63;;;;;;;;;;5028615;28;20565;-66
2022/10/03 04:04:54;;;;;;;36.70;4.00;;;;;;;;;;5046823;28;20032;-66
2022/10/03 04:07:38;;;;;;;13.15;3.80;;;;;;;;;;5027857;28;20036;-67
2022/10/03 04:10:14;;;;;;;30.45;4.10;;;;;;;;;;5028074;28;20051;-66
2022/10/03 04:13:01;;;;;;;17.23;3.53;;;;;;;;;;5030259;28;20745;-66
2022/10/03 04:15:52;;;;;;;23.52;3.92;;;;;;;;;;5047610;28;20757;-67
2022/10/03 04:21:59;;;;;;;18.67;3.60;;;;;;;;;;5033862;28;20044;-67
2022/10/03 04:24:37;;;;;;;9.18;3.40;;;;;;;;;;5047423;28;20037;-67
2022/10/03 04:27:40;;;;;;;6.63;3.45;;;;;;;;;;5029739;28;20067;-67
2022/10/03 04:30:22;;;;;;;9.00;3.60;;;;;;;;;;5047566;28;20041;-66
2022/10/03 04:32:56;;;;;;;27.08;4.20;;;;;;;;;;5029474;28;20033;-67
2022/10/03 04:35:40;;;;;;;4.95;3.10;;;;;;;;;;5044096;28;20052;-66
2022/10/03 04:38:20;;;;;;;;;;;;;;;;;;5047570;28;20060;-66
2022/10/03 04:41:22;;;;;;;16.92;3.78;;;;;;;;;;5029703;28;20384;-66
2022/10/03 04:44:07;;;;;;;6.40;3.55;;;;;;;;;;5002016;28;20527;-67
2022/10/03 04:46:42;;;;;;;9.73;3.55;;;;;;;;;;5026488;28;20095;-67
2022/10/03 04:49:46;;;;;;;6.47;3.03;;;;;;;;;;5027250;28;20064;-67
2022/10/03 04:52:18;;;;;;;10.40;3.30;;;;;;;;;;5051900;28;20077;-66
2022/10/03 04:55:00;;;;;;;6.18;3.03;;;;;;;;;;5067542;28;20037;-67
2022/10/03 04:57:28;;;;;;;8.45;3.47;;;;;;;;;;5066566;28;20079;-66
2022/10/03 05:00:15;;;;;;;9.65;3.13;;;;;;;;;;5048727;28;20039;-67
2022/10/03 05:02:58;;;;;;;22.33;3.40;;;;;;;;;;5066551;28;20033;-67
2022/10/03 05:05:54;;;;;;;18.60;3.67;;;;;;;;;;5066995;28;20049;-67
2022/10/03 05:08:50;;;;;;;10.75;3.40;;;;;;;;;;5064710;28;20021;-67
2022/10/03 05:11:43;;;;;;;21.05;3.60;;;;;;;;;;5066822;28;20031;-67
2022/10/03 05:14:23;;;;;;;11.75;3.90;;;;;;;;;;5066946;28;20028;-66
2022/10/03 05:17:07;;;;;;;19.70;4.00;;;;;;;;;;5060348;28;20037;-67
2022/10/03 05:19:49;;;;;;;7.95;3.45;;;;;;;;;;5046690;28;20041;-66
2022/10/03 05:22:37;;;;;;;8.00;3.85;;;;;;;;;;5029470;28;20033;-66
2022/10/03 05:25:21;;;;;;;35.60;4.72;;;;;;;;;;5046209;28;20029;-66
2022/10/03 05:27:52;;;;;;;13.25;5.75;;;;;;;;;;5046694;28;20029;-67
2022/10/03 05:30:52;;;;;;;14.48;4.80;;;;;;;;;;5046371;28;20089;-66
2022/10/03 05:33:35;;;;;;;12.60;4.50;;;;;;;;;;5028708;28;20592;-66
2022/10/03 05:36:22;;;;;;;13.15;4.03;;;;;;;;;;5029252;28;20036;-66
2022/10/03 05:38:48;;;;;;;14.63;3.78;;;;;;;;;;5036378;28;20437;-67
2022/10/03 05:41:16;;;;;;;6.90;3.80;;;;;;;;;;5046692;28;20029;-66
2022/10/03 05:44:00;;;;;;;9.18;3.80;;;;;;;;;;5046775;28;20639;-67
2022/10/03 05:46:28;;;;;;;9.77;3.05;;;;;;;;;;5046509;28;20646;-66
2022/10/03 05:49:24;;;;;;;14.07;4.05;;;;;;;;;;5046308;28;20041;-66
2022/10/03 05:52:03;;;;;;;12.80;3.58;;;;;;;;;;5046613;28;20120;-67
2022/10/03 05:55:07;;;;;;;21.80;3.60;;;;;;;;;;5047660;28;20488;-66
2022/10/03 05:57:54;;;;;;;12.52;3.63;;;;;;;;;;5046899;28;20087;-66
2022/10/03 06:00:23;;;;;;;31.27;3.72;;;;;;;;;;5046445;28;20037;-67
2022/10/03 06:03:17;;;;;;;18.63;3.70;;;;;;;;;;5046297;28;20421;-67
2022/10/03 06:06:09;;;;;;;9.88;3.28;;;;;;;;;;5035196;28;20042;-66
2022/10/03 06:09:06;;;;;;;16.20;3.47;;;;;;;;;;5044924;28;20083;-67
2022/10/03 06:12:01;;;;;;;20.42;3.75;;;;;;;;;;5040338;28;20116;-66
2022/10/03 06:14:33;;;;;;;17.52;4.03;;;;;;;;;;5019943;28;20044;-66
2022/10/03 06:17:17;;;;;;;15.77;3.70;;;;;;;;;;5039478;28;20043;-67
2022/10/03 06:20:00;;;;;;;6.93;3.88;;;;;;;;;;5027113;28;20525;-66
2022/10/03 06:22:44;;;;;;;25.92;4.88;;;;;;;;;;5046355;28;20028;-67
2022/10/03 06:25:39;;;;;;;14.30;3.97;;;;;;;;;;5045382;28;20040;-66
2022/10/03 06:28:25;;;;;;;18.85;4.25;;;;;;;;;;5045854;28;20037;-66
2022/10/03 06:31:10;;;;;;;10.18;3.42;;;;;;;;;;5044341;28;20533;-66
2022/10/03 06:34:12;;;;;;;17.27;3.50;;;;;;;;;;5049776;28;20587;-67
2022/10/03 06:36:56;;;;;;;10.85;3.97;;;;;;;;;;5066192;28;20124;-66
2022/10/03 06:39:41;;;;;;;20.55;3.78;;;;;;;;;;5053579;28;20083;-66
2022/10/03 06:42:28;;;;;;;9.73;3.85;;;;;;;;;;5050247;28;20036;-67
2022/10/03 06:45:12;;;;;;;36.60;4.53;;;;;;;;;;5030697;28;20645;-66
2022/10/03 06:47:38;;;;;;;15.00;3.92;;;;;;;;;;5040556;28;20118;-67
2022/10/03 06:50:36;;;;;;;18.13;4.32;;;;;;;;;;5038870;28;20100;-66
2022/10/03 06:53:30;;;;;;;13.15;4.45;;;;;;;;;;5043488;28;20112;-67
2022/10/03 06:55:59;;;;;;;;;;;;;;;;;;5028908;28;20111;-66
2022/10/03 06:58:45;;;;;;;15.77;4.43;;;;;;;;;;5047662;28;20134;-67
2022/10/03 07:01:10;;;;;;;20.05;4.32;;;;;;;;;;5030145;28;20040;-67
2022/10/03 07:03:54;;;;;;;24.88;4.65;;;;;;;;;;5050496;28;20044;-66
2022/10/03 07:06:51;;;;;;;13.52;3.97;;;;;;;;;;5068379;28;20029;-67
2022/10/03 07:09:35;;;;;;;17.45;4.00;;;;;;;;;;5044328;28;20246;-66
2022/10/03 07:12:32;;;;;;;12.20;4.53;;;;;;;;;;5055313;28;20036;-66
2022/10/03 07:15:25;;;;;;;12.63;4.25;;;;;;;;;;5035627;28;20112;-67
2022/10/03 07:18:36;;;;;;;7.90;3.88;;;;;;;;;;5037848;28;20117;-67
2022/10/03 07:21:27;;;;;;;11.85;4.13;;;;;;;;;;5000830;28;20743;-67
2022/10/03 07:24:14;;;;;;;7.32;3.60;;;;;;;;;;5033051;28;20550;-66
2022/10/03 07:26:39;;;;;;;10.48;3.85;;;;;;;;;;5047767;28;20045;-67
2022/10/03 07:29:07;;;;;;;7.38;3.72;;;;;;;;;;5047985;28;20082;-67
2022/10/03 07:31:51;;;;;;;10.98;4.22;;;;;;;;;;5043210;28;20034;-67
2022/10/03 07:34:51;;;;;;;9.13;3.67;;;;;;;;;;5027011;28;20067;-66
2022/10/03 07:41:08;;;;;;;9.30;4.07;;;;;;;;;;5043543;28;20102;-67
2022/10/03 07:43:57;;;;;;;7.75;4.30;;;;;;;;;;4966190;28;20046;-67
2022/10/03 07:47:00;;;;;;;8.80;4.20;;;;;;;;;;4983001;28;20046;-67
2022/10/03 07:49:53;;;;;;;11.38;4.95;;;;;;;;;;5020956;28;20115;-67
2022/10/03 07:52:53;;;;;;;7.80;4.30;;;;;;;;;;5010093;28;20099;-67
2022/10/03 07:55:42;;;;;;;13.20;5.18;;;;;;;;;;5002283;28;20284;-67
2022/10/03 07:58:45;;;;;;;14.93;5.18;;;;;;;;;;5028194;28;20518;-67
2022/10/03 08:01:32;;;;;;;11.20;5.85;;;;;;;;;;5024724;28;20061;-67
2022/10/03 08:04:48;;;;;;;13.05;5.90;;;;;;;;;;5026932;28;20584;-67
2022/10/03 08:07:41;;;;;;;11.02;5.07;;;;;;;;;;4965373;28;20532;-67
2022/10/03 08:10:28;;;;;;;9.57;4.78;;;;;;;;;;4966561;28;20503;-67
2022/10/03 08:13:25;;;;;;;7.60;4.88;;;;;;;;;;5013945;28;20418;-67
2022/10/03 08:16:06;;;;;;;7.63;4.70;;;;;;;;;;5028807;28;20038;-66
2022/10/03 08:18:54;;;;;;;11.02;4.88;;;;;;;;;;5028458;28;20034;-67
2022/10/03 08:21:33;;;;;;;17.58;6.07;;;;;;;;;;5020068;28;20052;-67
2022/10/03 08:24:04;;;;;;;27.00;6.10;;;;;;;;;;5027925;28;20036;-67
2022/10/03 08:26:44;;;;;;;11.93;6.13;;;;;;;;;;5028091;28;20112;-67
2022/10/03 08:29:25;;;;;;;12.77;6.22;;;;;;;;;;5028222;28;20067;-67
2022/10/03 08:32:10;;;;;;;16.30;6.32;;;;;;;;;;5028770;28;20018;-67
2022/10/03 08:35:12;;;;;;;12.73;5.97;;;;;;;;;;5029153;28;20506;-67
2022/10/03 08:37:56;;;;;;;15.73;6.50;;;;;;;;;;5028301;28;20041;-67
2022/10/03 08:40:43;;;;;;;21.35;6.68;;;;;;;;;;5043719;28;20036;-67
2022/10/03 08:43:24;;;;;;;54.92;6.93;;;;;;;;;;5047145;28;20064;-67
2022/10/03 08:46:00;;;;;;;20.73;6.65;;;;;;;;;;5046982;28;20071;-67
2022/10/03 08:48:25;;;;;;;15.07;6.88;;;;;;;;;;5039073;28;20084;-66
2022/10/03 08:51:28;;;;;;;22.98;6.05;;;;;;;;;;5042307;28;20061;-67
2022/10/03 08:54:24;;;;;;;25.48;5.75;;;;;;;;;;5048132;28;20052;-67
2022/10/03 08:57:25;;;;;;;23.38;5.55;;;;;;;;;;5047776;28;20040;-67
2022/10/03 09:00:04;;;;;;;9.50;5.72;;;;;;;;;;5044833;28;20521;-66
2022/10/03 09:02:59;;;;;;;54.55;6.10;;;;;;;;;;5046621;28;20111;-66
2022/10/03 09:05:43;;;;;;;18.40;6.30;;;;;;;;;;5044696;28;20124;-65
2022/10/03 09:08:49;;;;;;;17.02;6.13;;;;;;;;;;5024801;28;20017;-65
2022/10/03 09:11:37;;;;;;;52.50;6.78;;;;;;;;;;5041692;28;20450;-65
2022/10/03 09:14:30;;;;;;;12.23;6.18;;;;;;;;;;5032286;28;20025;-66
2022/10/03 09:17:17;;;;;;;24.33;7.07;;;;;;;;;;5023809;28;20526;-65
2022/10/03 09:20:15;;;;;;;40.53;6.75;;;;;;;;;;5025558;28;20045;-68
2022/10/03 09:22:53;;;;;;;24.35;7.30;;;;;;;;;;5009144;28;20497;-66
2022/10/03 09:25:23;;;;;;;18.13;6.53;;;;;;;;;;5044524;28;20051;-66
2022/10/03 09:28:11;;;;;;;17.10;7.78;;;;;;;;;;5046573;28;20087;-66
2022/10/03 09:31:03;;;;;;;49.60;8.60;;;;;;;;;;5046864;28;20041;-66
2022/10/03 09:34:06;;;;;;;19.20;8.20;;;;;;;;;;5045122;28;20040;-66
2022/10/03 09:36:53;;;;;;;16.17;7.43;;;;;;;;;;5042104;28;20033;-66
2022/10/03 09:39:46;;;;;;;15.57;7.80;;;;;;;;;;5042839;28;20040;-66
2022/10/03 09:42:54;;;;;;;18.52;8.32;;;;;;;;;;5026727;28;20037;-66
2022/10/03 09:46:04;;;;;;;16.33;8.32;;;;;;;;;;5006698;28;20049;-66
2022/10/03 09:49:15;;;;;;;19.30;9.07;;;;;;;;;;5017549;28;20124;-66
2022/10/03 09:51:56;;;;;;;20.27;8.75;;;;;;;;;;5032263;28;20087;-66
2022/10/03 09:54:27;;;;;;;16.40;8.02;;;;;;;;;;5040545;28;20037;-65
2022/10/03 09:57:14;;;;;;;17.52;7.93;;;;;;;;;;5048775;28;20037;-66
2022/10/03 10:00:07;;;;;;;19.00;9.20;;;;;;;;;;5026574;28;20145;-66
2022/10/03 10:02:57;;;;;;;19.33;8.05;;;;;;;;;;5038960;28;20049;-66
2022/10/03 10:05:41;;;;;;;19.73;8.70;;;;;;;;;;5041372;28;20031;-66
2022/10/03 10:08:25;;;;;;;17.60;8.27;;;;;;;;;;5046194;28;20482;-65
2022/10/03 10:10:59;;;;;;;18.92;9.05;;;;;;;;;;5046850;28;20029;-66
2022/10/03 10:13:48;;;;;;;20.13;8.68;;;;;;;;;;5025568;28;20482;-66
2022/10/03 10:16:33;;;;;;;21.15;9.23;;;;;;;;;;5043927;28;20073;-66
2022/10/03 10:19:25;;;;;;;18.00;9.02;;;;;;;;;;5031293;28;20032;-66
2022/10/03 10:21:53;;;;;;;20.85;8.93;;;;;;;;;;5050497;28;20060;-66
2022/10/03 10:24:27;;;;;;;23.63;7.85;;;;;;;;;;5050166;28;20128;-66
2022/10/03 10:27:24;;;;;;;17.02;7.65;;;;;;;;;;5049851;28;20037;-65
2022/10/03 10:30:20;;;;;;;22.58;9.18;;;;;;;;;;5050291;28;20049;-66
2022/10/03 10:33:20;;;;;;;24.98;8.93;;;;;;;;;;5049263;28;20651;-65
2022/10/03 10:36:22;;;;;;;24.48;8.98;;;;;;;;;;5036415;28;20057;-65
2022/10/03 10:39:24;;;;;;;18.73;7.75;;;;;;;;;;5031574;28;20137;-66
2022/10/03 10:42:26;;;;;;;18.58;7.53;;;;;;;;;;5040529;28;20040;-66
2022/10/03 10:45:14;;;;;;;18.73;7.80;;;;;;;;;;5049945;28;20115;-65
2022/10/03 10:48:07;;;;;;;14.80;6.47;;;;;;;;;;5036771;28;20061;-66
2022/10/03 10:51:04;;;;;;;12.63;6.13;;;;;;;;;;5042743;28;20080;-65
2022/10/03 10:54:03;;;;;;;14.85;5.97;;;;;;;;;;5048953;28;20044;-66
2022/10/03 10:56:53;;;;;;;18.30;5.75;;;;;;;;;;5049077;28;20107;-65
2022/10/03 10:59:37;;;;;;;15.18;4.97;;;;;;;;;;5050322;28;20029;-66
2022/10/03 11:02:17;;;;;;;12.13;4.10;;;;;;;;;;5042613;28;20025;-65
2022/10/03 11:05:20;;;;;;;13.10;4.22;;;;;;;;;;5045674;28;20048;-66
2022/10/03 11:08:10;;;;;;;13.73;4.60;;;;;;;;;;5038535;28;20398;-67
2022/10/03 11:11:00;;;;;;;15.02;4.35;;;;;;;;;;5047904;28;20088;-67
2022/10/03 11:13:54;;;;;;;13.18;5.45;;;;;;;;;;5049485;28;20526;-67
2022/10/03 11:16:34;;;;;;;8.95;3.85;;;;;;;;;;5030542;28;21343;-68
2022/10/03 11:19:25;;;;;;;12.43;3.97;;;;;;;;;;5049798;28;20045;-67
2022/10/03 11:22:18;;;;;;;13.07;3.85;;;;;;;;;;5033974;28;20045;-66
2022/10/03 11:25:21;;;;;;;9.98;3.55;;;;;;;;;;5068225;28;20060;-68
2022/10/03 11:28:26;;;;;;;13.27;4.82;;;;;;;;;;5069549;28;20060;-66
2022/10/03 11:31:19;;;;;;;13.65;4.32;;;;;;;;;;5038148;28;20993;-67
2022/10/03 11:34:28;;;;;;;11.82;4.30;;;;;;;;;;5049286;28;20588;-66
2022/10/03 11:37:15;;;;;;;11.18;4.03;;;;;;;;;;4952302;28;20066;-67
2022/10/03 11:40:03;;;;;;;14.27;4.38;;;;;;;;;;4966769;28;20057;-66
2022/10/03 11:42:58;;;;;;;14.40;3.47;;;;;;;;;;5033058;28;20040;-67
2022/10/03 11:45:41;;;;;;;12.40;4.30;;;;;;;;;;5008733;28;20581;-71
2022/10/03 11:48:38;;;;;;;9.02;3.78;;;;;;;;;;5048828;28;20526;-66
2022/10/03 11:51:24;;;;;;;10.75;3.72;;;;;;;;;;5032791;28;20060;-66
2022/10/03 11:53:56;;;;;;;8.73;3.15;;;;;;;;;;5028338;28;20180;-66
2022/10/03 11:56:31;;;;;;;10.90;4.28;;;;;;;;;;5027553;28;20438;-66
2022/10/03 11:59:31;;;;;;;12.43;4.05;;;;;;;;;;5029313;28;20030;-67
2022/10/03 12:02:28;;;;;;;8.18;3.70;;;;;;;;;;5059932;28;20060;-67
2022/10/03 12:04:56;;;;;;;11.20;3.58;;;;;;;;;;5029057;28;20127;-66
2022/10/03 12:10:50;;;;;;;5.53;3.08;;;;;;;;;;5029183;28;20091;-66
2022/10/03 12:13:55;;;;;;;8.75;2.90;;;;;;;;;;5028722;28;20124;-66
2022/10/03 12:16:27;;;;;;;12.77;2.90;;;;;;;;;;5019832;28;20045;-67
2022/10/03 12:19:01;;;;;;;13.43;3.05;;;;;;;;;;5030508;28;20495;-66
2022/10/03 12:21:46;;;;;;;7.75;2.85;;;;;;;;;;5051775;28;20028;-66
2022/10/03 12:24:23;;;;;;;12.48;2.67;;;;;;;;;;5049745;28;20576;-67
2022/10/03 12:27:00;;;;;;;13.30;3.00;;;;;;;;;;5068438;28;20429;-67
2022/10/03 12:29:31;;;;;;;8.50;2.72;;;;;;;;;;5061124;28;20528;-66
2022/10/03 12:32:11;;;;;;;5.68;2.70;;;;;;;;;;5016259;28;20026;-66
2022/10/03 12:34:41;;;;;;;7.28;2.55;;;;;;;;;;5039418;28;20102;-66
2022/10/03 12:37:34;;;;;;;11.02;3.60;;;;;;;;;;5036665;28;20033;-66
2022/10/03 12:40:13;;;;;;;12.10;2.80;;;;;;;;;;5049354;28;20457;-66
2022/10/03 12:42:44;;;;;;;9.23;2.42;;;;;;;;;;5046434;28;20071;-66
2022/10/03 12:45:18;;;;;;;8.00;2.40;;;;;;;;;;5046748;28;20086;-66
2022/10/03 12:47:44;;;;;;;7.03;2.53;;;;;;;;;;5046719;28;20033;-66
2022/10/03 12:50:26;;;;;;;7.97;2.85;;;;;;;;;;5047424;28;20044;-66
2022/10/03 12:53:11;;;;;;;2.97;1.75;;;;;;;;;;5048105;28;20031;-66
2022/10/03 12:55:39;;;;;;;7.75;2.30;;;;;;;;;;5048082;28;20044;-66
2022/10/03 12:58:29;;;;;;;8.95;2.05;;;;;;;;;;5045996;28;20806;-66
2022/10/03 13:01:06;;;;;;;3.63;1.67;;;;;;;;;;5036085;28;20029;-66
2022/10/03 13:03:48;;;;;;;3.17;1.40;;;;;;;;;;5027330;28;20037;-66
2022/10/03 13:06:16;;;;;;;4.32;1.42;;;;;;;;;;5032391;28;20079;-66
2022/10/03 13:09:04;;;;;;;4.60;1.40;;;;;;;;;;5027511;28;20044;-66
2022/10/03 13:11:53;;;;;;;3.25;1.38;;;;;;;;;;5009516;28;20123;-66
2022/10/03 13:14:58;;;;;;;3.78;1.42;;;;;;;;;;5035184;28;20029;-66
2022/10/03 13:17:39;;;;;;;4.38;1.67;;;;;;;;;;5026814;28;20041;-66
2022/10/03 13:20:18;;;;;;;10.48;2.28;;;;;;;;;;5027000;28;20025;-66
2022/10/03 13:23:02;;;;;;;11.13;2.33;;;;;;;;;;5009714;28;20048;-66
2022/10/03 13:25:36;;;;;;;6.47;1.58;;;;;;;;;;5026461;28;20038;-66
2022/10/03 13:28:21;;;;;;;3.35;1.70;;;;;;;;;;5024899;28;20414;-66
2022/10/03 13:31:14;;;;;;;3.45;1.77;;;;;;;;;;5043698;28;20037;-66
2022/10/03 13:33:53;;;;;;;6.95;1.90;;;;;;;;;;5027968;28;20487;-66
2022/10/03 13:37:00;;;;;;;6.00;1.80;;;;;;;;;;5046127;28;20529;-66
2022/10/03 13:39:36;;;;;;;7.82;1.80;;;;;;;;;;5036326;28;20071;-66
2022/10/03 13:42:18;;;;;;;2.75;1.23;;;;;;;;;;5046649;28;20583;-66
2022/10/03 13:44:47;;;;;;;7.28;2.03;;;;;;;;;;5045840;28;20525;-66
2022/10/03 13:47:34;;;;;;;3.85;1.70;;;;;;;;;;5046648;28;20048;-66
2022/10/03 13:50:03;;;;;;;5.35;1.58;;;;;;;;;;5047573;28;20025;-66
2022/10/03 13:52:38;;;;;;;7.97;1.65;;;;;;;;;;5030663;28;20556;-66
2022/10/03 13:55:27;;;;;;;3.40;1.50;;;;;;;;;;5050087;28;20068;-66
2022/10/03 13:57:59;;;;;;;4.53;1.77;;;;;;;;;;5050379;28;20083;-67
2022/10/03 14:00:30;;;;;;;3.03;1.30;;;;;;;;;;5031973;28;20037;-66
2022/10/03 14:03:18;;;;;;;5.97;1.60;;;;;;;;;;5048980;28;20056;-66
2022/10/03 14:05:51;;;;;;;8.10;1.63;;;;;;;;;;5050317;28;20044;-66
2022/10/03 14:08:38;;;;;;;4.22;1.42;;;;;;;;;;5049964;28;20035;-66
2022/10/03 14:11:09;;;;;;;4.30;1.60;;;;;;;;;;5045197;28;20557;-66
2022/10/03 14:13:45;;;;;;;5.35;1.17;;;;;;;;;;5036774;28;20128;-66
2022/10/03 14:16:20;;;;;;;6.13;1.60;;;;;;;;;;5028760;28;20078;-66
2022/10/03 14:18:53;;;;;;;5.57;2.40;;;;;;;;;;5034984;28;20037;-66
2022/10/03 14:21:34;;;;;;;2.40;1.10;;;;;;;;;;5032422;28;20064;-66
2022/10/03 14:24:19;;;;;;;7.78;1.65;;;;;;;;;;5029746;28;20029;-66
2022/10/03 14:27:20;;;;;;;5.35;1.40;;;;;;;;;;5038031;28;20051;-66
2022/10/03 14:30:35;;;;;;;3.13;1.40;;;;;;;;;;4986670;28;20676;-66
2022/10/03 14:33:09;;;;;;;2.97;1.40;;;;;;;;;;4987829;28;20075;-66
2022/10/03 14:35:40;;;;;;;5.10;1.55;;;;;;;;;;5048546;28;20071;-66
2022/10/03 14:39:00;;;;;;;3.65;1.33;;;;;;;;;;5024934;28;20037;-66
2022/10/03 14:41:32;;;;;;;2.65;1.42;;;;;;;;;;4976226;28;20042;-66
2022/10/03 14:44:06;;;;;;;6.22;1.45;;;;;;;;;;5022441;28;20045;-66
2022/10/03 14:46:47;;;;;;;5.47;1.50;;;;;;;;;;5029513;28;20079;-66
2022/10/03 14:49:22;;;;;;;5.50;1.20;;;;;;;;;;5011775;28;20038;-66
2022/10/03 14:51:55;;;;;;;4.50;1.48;;;;;;;;;;5026523;28;20041;-67
2022/10/03 14:54:24;;;;;;;3.50;1.20;;;;;;;;;;5028801;28;20041;-66
2022/10/03 14:56:51;;;;;;;4.35;1.33;;;;;;;;;;5028884;28;20075;-67
2022/10/03 14:59:24;;;;;;;2.80;1.15;;;;;;;;;;5044237;28;20516;-66
2022/10/03 15:01:51;;;;;;;;;;;;;;;;;;5049721;28;20025;-66
2022/10/03 15:04:30;;;;;;;3.92;1.30;;;;;;;;;;5029654;28;19916;-66
2022/10/03 15:07:01;;;;;;;1.23;1.05;;;;;;;;;;5030474;28;20114;-66
2022/10/03 15:09:49;;;;;;;2.78;1.00;;;;;;;;;;5040058;28;20037;-66
2022/10/03 15:12:23;;;;;;;4.38;1.20;;;;;;;;;;5048407;28;20584;-66
2022/10/03 15:15:08;;;;;;;2.22;1.17;;;;;;;;;;5068150;28;20048;-66
2022/10/03 15:17:43;;;;;;;3.42;1.30;;;;;;;;;;5067781;28;20032;-66
2022/10/03 15:20:11;;;;;;;5.97;1.65;;;;;;;;;;5068359;28;20073;-66
2022/10/03 15:22:39;;;;;;;2.65;1.05;;;;;;;;;;5051489;28;20123;-67
2022/10/03 15:25:22;;;;;;;1.67;1.00;;;;;;;;;;5050069;28;20032;-66
2022/10/03 15:27:56;;;;;;;5.37;1.33;;;;;;;;;;5043241;28;20041;-67
2022/10/03 15:30:25;;;;;;;5.75;1.63;;;;;;;;;;5034906;28;20281;-66
2022/10/03 15:32:54;;;;;;;3.53;1.42;;;;;;;;;;5047827;28;20100;-67
2022/10/03 15:35:26;;;;;;;4.53;1.90;;;;;;;;;;5030317;28;20097;-67
2022/10/03 15:37:52;;;;;;;4.65;2.00;;;;;;;;;;5031099;28;20028;-66
2022/10/03 15:40:31;;;;;;;5.22;1.75;;;;;;;;;;5048321;28;20045;-66
2022/10/03 15:43:40;;;;;;;5.22;2.00;;;;;;;;;;5048607;28;20598;-66
2022/10/03 15:46:26;;;;;;;5.45;2.22;;;;;;;;;;5045344;28;20044;-66
2022/10/03 15:48:53;;;;;;;4.90;2.30;;;;;;;;;;5049037;28;20489;-66
2022/10/03 15:51:25;;;;;;;4.90;2.10;;;;;;;;;;5028784;28;20545;-67
2022/10/03 15:53:54;;;;;;;5.03;2.50;;;;;;;;;;5047750;28;20029;-67
2022/10/03 15:56:26;;;;;;;5.43;2.60;;;;;;;;;;5048021;28;20541;-66
2022/10/03 15:58:55;;;;;;;6.35;2.10;;;;;;;;;;5048478;28;20041;-66
2022/10/03 16:01:25;;;;;;;6.80;2.50;;;;;;;;;;5030168;28;20536;-66
2022/10/03 16:03:54;;;;;;;8.45;2.50;;;;;;;;;;5049052;28;20041;-66
2022/10/03 16:06:39;;;;;;;6.45;2.75;;;;;;;;;;5028537;28;20045;-66
2022/10/03 16:09:20;;;;;;;5.55;2.50;;;;;;;;;;5047189;28;20691;-66
2022/10/03 16:12:02;;;;;;;5.60;2.70;;;;;;;;;;5039832;28;20052;-66
2022/10/03 16:14:44;;;;;;;4.43;2.45;;;;;;;;;;5039128;28;20528;-66
2022/10/03 16:17:20;;;;;;;9.07;2.72;;;;;;;;;;5027608;28;20022;-66
2022/10/03 16:19:57;;;;;;;12.20;2.67;;;;;;;;;;5027766;28;20455;-66
2022/10/03 16:22:44;;;;;;;5.45;2.50;;;;;;;;;;5027914;28;20030;-66
2022/10/03 16:25:18;;;;;;;5.55;2.40;;;;;;;;;;5026953;28;20116;-66
2022/10/03 16:28:00;;;;;;;6.97;2.47;;;;;;;;;;5028354;28;20038;-66
2022/10/03 16:30:33;;;;;;;7.32;2.88;;;;;;;;;;5026998;28;20060;-66
2022/10/03 16:33:08;;;;;;;6.35;3.58;;;;;;;;;;5032611;28;20135;-66